EJU86PG LIRF-EBBR
Flight info
| Callsign | EJU86PG |
|---|---|
| Flight time | 1h 50m |
| Altitude | 36000 |
| Route | NEMBO DCT GOVGO DCT AOSTA DCT ORSUD DCT MOLUS DCT GILIR DCT PENDU DCT IXILU DCT GIVOR/N0420F320 DCT SORAL DCT IBERA N853 DIK Y37 BATTY |
| Aircraft | A320/M-SDE3FGHIRWY/LB1 |
Departure
| Time | 2026-05-05 11:20 |
|---|---|
| Airport | Rome–Fiumicino Leonardo da Vinci International Airport (LIRF) |
Arrival
| Time | 2026-05-05 13:11 |
|---|---|
| Airport | Brussels Airport (EBBR) |
| Time | Latitude | Longitude | Altitude | Speed | Heading |
|---|---|---|---|---|---|
| 2026-05-05 10:33 | 41.79510 | 12.25866 | 14 ft | 0 kts | 295° |
| 2026-05-05 10:39 | 41.79510 | 12.25867 | 14 ft | 0 kts | 295° |
| 2026-05-05 10:52 | 41.79510 | 12.25868 | 14 ft | 0 kts | 295° |
| 2026-05-05 10:59 | 41.79509 | 12.25868 | 14 ft | 0 kts | 295° |
| 2026-05-05 11:06 | 41.79504 | 12.25883 | 15 ft | 4 kts | 302° |
| 2026-05-05 11:06 | 41.79491 | 12.25913 | 16 ft | 4 kts | 271° |
| 2026-05-05 11:06 | 41.79493 | 12.25937 | 15 ft | 4 kts | 214° |
| 2026-05-05 11:06 | 41.79513 | 12.25955 | 16 ft | 2 kts | 230° |
| 2026-05-05 11:07 | 41.79529 | 12.25974 | 18 ft | 4 kts | 192° |
| 2026-05-05 11:07 | 41.79554 | 12.25981 | 17 ft | 4 kts | 205° |
| 2026-05-05 11:07 | 41.79578 | 12.25996 | 16 ft | 4 kts | 205° |
| 2026-05-05 11:07 | 41.79603 | 12.26011 | 16 ft | 4 kts | 205° |
| 2026-05-05 11:08 | 41.79627 | 12.26027 | 15 ft | 4 kts | 205° |
| 2026-05-05 11:08 | 41.79652 | 12.26042 | 17 ft | 4 kts | 205° |
| 2026-05-05 11:08 | 41.79676 | 12.26058 | 16 ft | 4 kts | 205° |
| 2026-05-05 11:08 | 41.79700 | 12.26073 | 16 ft | 4 kts | 205° |
| 2026-05-05 11:09 | 41.79725 | 12.26088 | 16 ft | 4 kts | 205° |
| 2026-05-05 11:09 | 41.79749 | 12.26104 | 15 ft | 4 kts | 206° |
| 2026-05-05 11:09 | 41.79761 | 12.26112 | 15 ft | 1 kts | 206° |
| 2026-05-05 11:09 | 41.79762 | 12.26112 | 15 ft | 3 kts | 206° |
| 2026-05-05 11:13 | 41.79762 | 12.26111 | 15 ft | 0 kts | 220° |
| 2026-05-05 11:14 | 41.79762 | 12.26086 | 15 ft | 8 kts | 278° |
| 2026-05-05 11:14 | 41.79785 | 12.26013 | 14 ft | 8 kts | 295° |
| 2026-05-05 11:14 | 41.79808 | 12.25945 | 14 ft | 8 kts | 295° |
| 2026-05-05 11:14 | 41.79850 | 12.25839 | 15 ft | 13 kts | 313° |
| 2026-05-05 11:15 | 41.79933 | 12.25861 | 14 ft | 15 kts | 25° |
| 2026-05-05 11:15 | 41.80038 | 12.25926 | 15 ft | 17 kts | 24° |
| 2026-05-05 11:15 | 41.80149 | 12.25994 | 14 ft | 17 kts | 25° |
| 2026-05-05 11:15 | 41.80251 | 12.26057 | 14 ft | 16 kts | 25° |
| 2026-05-05 11:16 | 41.80343 | 12.26127 | 15 ft | 18 kts | 45° |
| 2026-05-05 11:16 | 41.80397 | 12.26289 | 15 ft | 20 kts | 70° |
| 2026-05-05 11:16 | 41.80448 | 12.26471 | 17 ft | 22 kts | 70° |
| 2026-05-05 11:16 | 41.80503 | 12.26671 | 15 ft | 24 kts | 69° |
| 2026-05-05 11:17 | 41.80564 | 12.26892 | 15 ft | 26 kts | 69° |
| 2026-05-05 11:17 | 41.80646 | 12.27045 | 14 ft | 19 kts | 11° |
| 2026-05-05 11:17 | 41.80759 | 12.27053 | 13 ft | 15 kts | 356° |
| 2026-05-05 11:17 | 41.80849 | 12.27022 | 13 ft | 12 kts | 340° |
| 2026-05-05 11:18 | 41.80919 | 12.26988 | 13 ft | 9 kts | 340° |
| 2026-05-05 11:18 | 41.80959 | 12.26931 | 12 ft | 9 kts | 271° |
| 2026-05-05 11:18 | 41.80947 | 12.26883 | 15 ft | 0 kts | 249° |
| 2026-05-05 11:19 | 41.80946 | 12.26882 | 15 ft | 1 kts | 249° |
| 2026-05-05 11:19 | 41.80882 | 12.26654 | 14 ft | 65 kts | 250° |
| 2026-05-05 11:20 | 41.80642 | 12.25784 | 19 ft | 131 kts | 249° |
| 2026-05-05 11:20 | 41.80268 | 12.24419 | 114 ft | 172 kts | 250° |
| 2026-05-05 11:20 | 41.79880 | 12.22885 | 796 ft | 176 kts | 244° |
| 2026-05-05 11:20 | 41.79465 | 12.21328 | 1462 ft | 186 kts | 246° |
| 2026-05-05 11:21 | 41.79293 | 12.19477 | 1916 ft | 215 kts | 264° |
| 2026-05-05 11:21 | 41.79261 | 12.17371 | 2519 ft | 236 kts | 264° |
| 2026-05-05 11:21 | 41.79191 | 12.15102 | 3242 ft | 249 kts | 264° |
| 2026-05-05 11:21 | 41.79123 | 12.12789 | 4240 ft | 252 kts | 265° |
| 2026-05-05 11:22 | 41.79055 | 12.10437 | 5389 ft | 253 kts | 265° |
| 2026-05-05 11:22 | 41.78994 | 12.08092 | 6560 ft | 253 kts | 267° |
| 2026-05-05 11:22 | 41.78976 | 12.05706 | 7446 ft | 260 kts | 269° |
| 2026-05-05 11:22 | 41.78982 | 12.03269 | 8359 ft | 263 kts | 269° |
| 2026-05-05 11:23 | 41.78994 | 12.00807 | 9295 ft | 265 kts | 268° |
| 2026-05-05 11:23 | 41.79003 | 11.98323 | 10193 ft | 268 kts | 268° |
| 2026-05-05 11:23 | 41.79006 | 11.95731 | 10600 ft | 290 kts | 268° |
| 2026-05-05 11:23 | 41.79004 | 11.92960 | 11103 ft | 303 kts | 268° |
| 2026-05-05 11:24 | 41.78998 | 11.90145 | 11838 ft | 309 kts | 268° |
| 2026-05-05 11:24 | 41.78997 | 11.87249 | 12677 ft | 313 kts | 270° |
| 2026-05-05 11:24 | 41.79306 | 11.84335 | 13482 ft | 321 kts | 282° |
| 2026-05-05 11:24 | 41.80142 | 11.81537 | 14216 ft | 328 kts | 296° |
| 2026-05-05 11:25 | 41.81320 | 11.78890 | 14920 ft | 332 kts | 297° |
| 2026-05-05 11:25 | 41.82514 | 11.76222 | 15611 ft | 335 kts | 297° |
| 2026-05-05 11:25 | 41.83713 | 11.73526 | 16291 ft | 339 kts | 297° |
| 2026-05-05 11:25 | 41.84922 | 11.70797 | 16966 ft | 342 kts | 297° |
| 2026-05-05 11:26 | 41.86123 | 11.68078 | 17632 ft | 345 kts | 297° |
| 2026-05-05 11:26 | 41.87352 | 11.65292 | 18307 ft | 349 kts | 297° |
| 2026-05-05 11:26 | 41.88592 | 11.62479 | 18887 ft | 352 kts | 297° |
| 2026-05-05 11:26 | 41.89843 | 11.59644 | 19480 ft | 354 kts | 297° |
| 2026-05-05 11:27 | 41.91132 | 11.56809 | 20079 ft | 357 kts | 298° |
| 2026-05-05 11:27 | 41.92480 | 11.53993 | 20684 ft | 360 kts | 300° |
| 2026-05-05 11:27 | 41.93863 | 11.51179 | 21288 ft | 362 kts | 300° |
| 2026-05-05 11:27 | 41.95265 | 11.48348 | 21949 ft | 365 kts | 300° |
| 2026-05-05 11:28 | 41.96657 | 11.45531 | 22618 ft | 368 kts | 300° |
| 2026-05-05 11:28 | 41.98070 | 11.42650 | 23255 ft | 371 kts | 300° |
| 2026-05-05 11:28 | 41.99485 | 11.39738 | 23823 ft | 373 kts | 299° |
| 2026-05-05 11:28 | 42.00901 | 11.36800 | 24306 ft | 376 kts | 299° |
| 2026-05-05 11:29 | 42.02321 | 11.33843 | 24776 ft | 378 kts | 299° |
| 2026-05-05 11:29 | 42.03748 | 11.30864 | 25241 ft | 380 kts | 299° |
| 2026-05-05 11:29 | 42.05185 | 11.27865 | 25698 ft | 382 kts | 298° |
| 2026-05-05 11:29 | 42.06629 | 11.24856 | 26156 ft | 384 kts | 298° |
| 2026-05-05 11:30 | 42.08083 | 11.21824 | 26579 ft | 387 kts | 298° |
| 2026-05-05 11:30 | 42.09546 | 11.18777 | 27000 ft | 389 kts | 298° |
| 2026-05-05 11:30 | 42.10999 | 11.15749 | 27419 ft | 391 kts | 298° |
| 2026-05-05 11:30 | 42.12477 | 11.12664 | 27839 ft | 393 kts | 298° |
| 2026-05-05 11:31 | 42.13964 | 11.09559 | 28236 ft | 395 kts | 298° |
| 2026-05-05 11:31 | 42.15455 | 11.06435 | 28628 ft | 398 kts | 298° |
| 2026-05-05 11:31 | 42.16952 | 11.03292 | 29018 ft | 400 kts | 298° |
| 2026-05-05 11:31 | 42.18457 | 11.00125 | 29400 ft | 402 kts | 298° |
| 2026-05-05 11:32 | 42.19970 | 10.96944 | 29777 ft | 404 kts | 298° |
| 2026-05-05 11:32 | 42.21493 | 10.93744 | 30142 ft | 406 kts | 298° |
| 2026-05-05 11:32 | 42.23003 | 10.90570 | 30431 ft | 408 kts | 298° |
| 2026-05-05 11:32 | 42.24535 | 10.87339 | 30731 ft | 410 kts | 298° |
| 2026-05-05 11:33 | 42.26075 | 10.84091 | 31016 ft | 412 kts | 298° |
| 2026-05-05 11:33 | 42.27821 | 10.80994 | 31300 ft | 419 kts | 307° |
| 2026-05-05 11:33 | 42.29991 | 10.78312 | 31579 ft | 428 kts | 317° |
| 2026-05-05 11:33 | 42.32547 | 10.76166 | 31839 ft | 438 kts | 328° |
| 2026-05-05 11:34 | 42.35399 | 10.74603 | 32103 ft | 445 kts | 334° |
| 2026-05-05 11:34 | 42.38304 | 10.73178 | 32467 ft | 444 kts | 334° |
| 2026-05-05 11:34 | 42.41163 | 10.71771 | 32831 ft | 443 kts | 334° |
| 2026-05-05 11:34 | 42.44055 | 10.70345 | 33200 ft | 442 kts | 334° |
| 2026-05-05 11:35 | 42.46937 | 10.68922 | 33569 ft | 441 kts | 333° |
| 2026-05-05 11:35 | 42.49814 | 10.67495 | 33935 ft | 440 kts | 333° |
| 2026-05-05 11:35 | 42.52685 | 10.66067 | 34282 ft | 439 kts | 333° |
| 2026-05-05 11:35 | 42.55549 | 10.64642 | 34573 ft | 439 kts | 333° |
| 2026-05-05 11:36 | 42.58414 | 10.63216 | 34858 ft | 438 kts | 333° |
| 2026-05-05 11:36 | 42.61275 | 10.61790 | 35152 ft | 438 kts | 333° |
| 2026-05-05 11:36 | 42.64134 | 10.60362 | 35420 ft | 437 kts | 333° |
| 2026-05-05 11:36 | 42.66951 | 10.58957 | 35687 ft | 437 kts | 333° |
| 2026-05-05 11:37 | 42.69802 | 10.57538 | 35930 ft | 437 kts | 333° |
| 2026-05-05 11:37 | 42.75441 | 10.54732 | 36011 ft | 427 kts | 333° |
| 2026-05-05 11:38 | 42.80996 | 10.51941 | 35998 ft | 425 kts | 333° |
| 2026-05-05 11:38 | 42.86543 | 10.49152 | 35999 ft | 425 kts | 333° |
| 2026-05-05 11:39 | 42.92054 | 10.46384 | 36005 ft | 425 kts | 333° |
| 2026-05-05 11:39 | 42.97601 | 10.43592 | 36011 ft | 425 kts | 333° |
| 2026-05-05 11:40 | 43.03146 | 10.40791 | 36005 ft | 425 kts | 333° |
| 2026-05-05 11:40 | 43.08692 | 10.37983 | 36007 ft | 425 kts | 333° |
| 2026-05-05 11:41 | 43.14206 | 10.35188 | 36006 ft | 425 kts | 333° |
| 2026-05-05 11:41 | 43.19377 | 10.31544 | 36022 ft | 412 kts | 317° |
| 2026-05-05 11:42 | 43.23872 | 10.26709 | 36009 ft | 411 kts | 315° |
| 2026-05-05 11:42 | 43.28372 | 10.21862 | 36006 ft | 411 kts | 315° |
| 2026-05-05 11:43 | 43.32872 | 10.16997 | 36016 ft | 412 kts | 315° |
| 2026-05-05 11:43 | 43.37343 | 10.12155 | 36010 ft | 412 kts | 315° |
| 2026-05-05 11:44 | 43.41847 | 10.07270 | 36021 ft | 413 kts | 315° |
| 2026-05-05 11:44 | 43.46354 | 10.02376 | 36015 ft | 413 kts | 315° |
| 2026-05-05 11:45 | 43.50856 | 9.97461 | 36007 ft | 413 kts | 315° |
| 2026-05-05 11:45 | 43.55330 | 9.92575 | 36007 ft | 413 kts | 315° |
| 2026-05-05 11:46 | 43.59835 | 9.87655 | 36004 ft | 413 kts | 315° |
| 2026-05-05 11:46 | 43.64340 | 9.82721 | 36042 ft | 414 kts | 315° |
| 2026-05-05 11:47 | 43.68846 | 9.77769 | 36014 ft | 414 kts | 315° |
| 2026-05-05 11:47 | 43.73358 | 9.72802 | 36000 ft | 415 kts | 315° |
| 2026-05-05 11:48 | 43.80106 | 9.65359 | 35992 ft | 416 kts | 315° |
| 2026-05-05 11:48 | 43.84627 | 9.60365 | 36000 ft | 416 kts | 315° |
| 2026-05-05 11:49 | 43.89148 | 9.55357 | 35998 ft | 416 kts | 315° |
| 2026-05-05 11:49 | 43.93640 | 9.50370 | 35990 ft | 416 kts | 314° |
| 2026-05-05 11:50 | 43.98157 | 9.45340 | 36005 ft | 417 kts | 314° |
| 2026-05-05 11:50 | 44.02686 | 9.40285 | 35983 ft | 418 kts | 314° |
| 2026-05-05 11:51 | 44.07225 | 9.35218 | 35985 ft | 419 kts | 314° |
| 2026-05-05 11:51 | 44.11774 | 9.30134 | 35974 ft | 420 kts | 314° |
| 2026-05-05 11:52 | 44.16295 | 9.25064 | 35975 ft | 420 kts | 314° |
| 2026-05-05 11:52 | 44.20844 | 9.19944 | 35975 ft | 421 kts | 314° |
| 2026-05-05 11:53 | 44.25399 | 9.14813 | 35987 ft | 421 kts | 314° |
| 2026-05-05 11:53 | 44.29954 | 9.09677 | 35985 ft | 421 kts | 314° |
| 2026-05-05 11:54 | 44.34514 | 9.04527 | 36008 ft | 422 kts | 314° |
| 2026-05-05 11:54 | 44.39041 | 8.99401 | 35998 ft | 422 kts | 314° |
| 2026-05-05 11:55 | 44.43597 | 8.94224 | 35992 ft | 422 kts | 314° |
| 2026-05-05 11:55 | 44.48147 | 8.89039 | 35990 ft | 422 kts | 314° |
| 2026-05-05 11:56 | 44.52701 | 8.83852 | 35988 ft | 422 kts | 314° |
| 2026-05-05 11:56 | 44.57223 | 8.78690 | 35984 ft | 422 kts | 314° |
| 2026-05-05 11:57 | 44.61766 | 8.73482 | 35993 ft | 422 kts | 314° |
| 2026-05-05 11:57 | 44.66312 | 8.68259 | 36025 ft | 422 kts | 314° |
| 2026-05-05 11:58 | 44.70862 | 8.63031 | 36012 ft | 423 kts | 314° |
| 2026-05-05 11:58 | 44.75387 | 8.57828 | 36008 ft | 423 kts | 313° |
| 2026-05-05 11:59 | 44.79938 | 8.52571 | 36007 ft | 423 kts | 313° |
| 2026-05-05 11:59 | 44.84491 | 8.47304 | 36005 ft | 423 kts | 313° |
| 2026-05-05 12:00 | 44.89042 | 8.42032 | 36022 ft | 424 kts | 313° |
| 2026-05-05 12:00 | 44.93594 | 8.36743 | 36028 ft | 424 kts | 313° |
| 2026-05-05 12:01 | 44.98123 | 8.31468 | 36015 ft | 425 kts | 313° |
| 2026-05-05 12:01 | 45.02687 | 8.26141 | 36012 ft | 426 kts | 313° |
| 2026-05-05 12:02 | 45.07252 | 8.20807 | 36010 ft | 426 kts | 313° |
| 2026-05-05 12:02 | 45.11816 | 8.15451 | 36016 ft | 426 kts | 313° |
| 2026-05-05 12:03 | 45.16353 | 8.10127 | 36016 ft | 426 kts | 313° |
| 2026-05-05 12:03 | 45.20923 | 8.04759 | 36036 ft | 427 kts | 312° |
| 2026-05-05 12:04 | 45.25497 | 7.99362 | 36035 ft | 428 kts | 312° |
| 2026-05-05 12:04 | 45.30067 | 7.93949 | 36031 ft | 428 kts | 312° |
| 2026-05-05 12:05 | 45.34609 | 7.88568 | 36033 ft | 428 kts | 312° |
| 2026-05-05 12:05 | 45.39190 | 7.83139 | 36033 ft | 429 kts | 312° |
| 2026-05-05 12:06 | 45.43765 | 7.77698 | 36042 ft | 429 kts | 312° |
| 2026-05-05 12:06 | 45.48331 | 7.72245 | 36042 ft | 429 kts | 312° |
| 2026-05-05 12:07 | 45.52880 | 7.66820 | 36038 ft | 430 kts | 312° |
| 2026-05-05 12:07 | 45.57464 | 7.61339 | 36023 ft | 430 kts | 312° |
| 2026-05-05 12:08 | 45.62045 | 7.55839 | 36020 ft | 430 kts | 312° |
| 2026-05-05 12:08 | 45.66596 | 7.50370 | 36011 ft | 430 kts | 312° |
| 2026-05-05 12:09 | 45.71175 | 7.44848 | 36010 ft | 431 kts | 312° |
| 2026-05-05 12:09 | 45.75753 | 7.39314 | 36022 ft | 431 kts | 313° |
| 2026-05-05 12:10 | 45.80354 | 7.33788 | 36016 ft | 433 kts | 314° |
| 2026-05-05 12:10 | 45.85215 | 7.28636 | 35999 ft | 435 kts | 318° |
| 2026-05-05 12:11 | 45.90200 | 7.23773 | 35995 ft | 437 kts | 319° |
| 2026-05-05 12:11 | 45.95207 | 7.18818 | 35974 ft | 436 kts | 318° |
| 2026-05-05 12:12 | 46.00145 | 7.13770 | 35962 ft | 436 kts | 318° |
| 2026-05-05 12:12 | 46.05072 | 7.08680 | 35930 ft | 436 kts | 318° |
| 2026-05-05 12:13 | 46.09978 | 7.03617 | 35917 ft | 437 kts | 318° |
| 2026-05-05 12:13 | 46.14919 | 6.98521 | 35915 ft | 437 kts | 318° |
| 2026-05-05 12:14 | 46.19869 | 6.93423 | 35900 ft | 438 kts | 319° |
| 2026-05-05 12:14 | 46.24831 | 6.88308 | 35914 ft | 439 kts | 319° |
| 2026-05-05 12:15 | 46.29758 | 6.83205 | 35928 ft | 439 kts | 319° |
| 2026-05-05 12:15 | 46.34710 | 6.78059 | 35946 ft | 438 kts | 319° |
| 2026-05-05 12:16 | 46.39659 | 6.72894 | 35929 ft | 439 kts | 319° |
| 2026-05-05 12:16 | 46.42300 | 6.70632 | 35924 ft | 446 kts | 334° |
| 2026-05-05 12:16 | 46.45316 | 6.69449 | 35918 ft | 454 kts | 351° |
| 2026-05-05 12:17 | 46.51645 | 6.68811 | 35912 ft | 457 kts | 353° |
| 2026-05-05 12:17 | 46.57959 | 6.68255 | 35908 ft | 457 kts | 353° |
| 2026-05-05 12:18 | 46.64313 | 6.67683 | 35915 ft | 458 kts | 353° |
| 2026-05-05 12:18 | 46.70664 | 6.67101 | 35908 ft | 458 kts | 353° |
| 2026-05-05 12:19 | 46.76981 | 6.66512 | 35911 ft | 458 kts | 353° |
| 2026-05-05 12:19 | 46.83344 | 6.65916 | 35921 ft | 458 kts | 354° |
| 2026-05-05 12:20 | 46.89707 | 6.65327 | 35922 ft | 458 kts | 354° |
| 2026-05-05 12:20 | 46.96064 | 6.64729 | 35905 ft | 458 kts | 354° |
| 2026-05-05 12:21 | 47.02425 | 6.64137 | 35903 ft | 458 kts | 354° |
| 2026-05-05 12:21 | 47.08783 | 6.63551 | 35904 ft | 458 kts | 354° |
| 2026-05-05 12:22 | 47.15099 | 6.62963 | 35906 ft | 458 kts | 354° |
| 2026-05-05 12:22 | 47.21455 | 6.62364 | 35895 ft | 458 kts | 354° |
| 2026-05-05 12:23 | 47.27810 | 6.61754 | 35913 ft | 458 kts | 355° |
| 2026-05-05 12:23 | 47.34167 | 6.61156 | 35893 ft | 458 kts | 355° |
| 2026-05-05 12:24 | 47.40485 | 6.60557 | 35884 ft | 458 kts | 355° |
| 2026-05-05 12:24 | 47.46845 | 6.59942 | 35876 ft | 458 kts | 355° |
| 2026-05-05 12:25 | 47.53205 | 6.59333 | 35877 ft | 458 kts | 355° |
| 2026-05-05 12:25 | 47.59567 | 6.58716 | 35881 ft | 458 kts | 355° |
| 2026-05-05 12:26 | 47.65883 | 6.58114 | 35884 ft | 458 kts | 355° |
| 2026-05-05 12:26 | 47.72242 | 6.57508 | 35887 ft | 458 kts | 355° |
| 2026-05-05 12:27 | 47.78595 | 6.56908 | 35896 ft | 457 kts | 355° |
| 2026-05-05 12:27 | 47.84947 | 6.56299 | 35901 ft | 457 kts | 355° |
| 2026-05-05 12:28 | 47.91223 | 6.55694 | 35899 ft | 457 kts | 355° |
| 2026-05-05 12:28 | 47.97563 | 6.55077 | 35907 ft | 457 kts | 355° |
| 2026-05-05 12:29 | 48.03908 | 6.54455 | 35896 ft | 457 kts | 355° |
| 2026-05-05 12:29 | 48.10244 | 6.53840 | 35888 ft | 456 kts | 355° |
| 2026-05-05 12:30 | 48.16527 | 6.53230 | 35883 ft | 455 kts | 355° |
| 2026-05-05 12:30 | 48.22847 | 6.52615 | 35882 ft | 455 kts | 355° |
| 2026-05-05 12:31 | 48.29169 | 6.51997 | 35873 ft | 455 kts | 355° |
| 2026-05-05 12:31 | 48.35495 | 6.51373 | 35883 ft | 456 kts | 355° |
| 2026-05-05 12:32 | 48.40763 | 6.50855 | 35891 ft | 457 kts | 355° |
| 2026-05-05 12:32 | 48.48128 | 6.50121 | 35882 ft | 456 kts | 356° |
| 2026-05-05 12:33 | 48.54456 | 6.49492 | 35884 ft | 456 kts | 356° |
| 2026-05-05 12:33 | 48.60786 | 6.48860 | 35882 ft | 456 kts | 356° |
| 2026-05-05 12:34 | 48.66053 | 6.48341 | 35878 ft | 456 kts | 356° |
| 2026-05-05 12:34 | 48.73412 | 6.47609 | 35875 ft | 456 kts | 356° |
| 2026-05-05 12:35 | 48.79745 | 6.46969 | 35877 ft | 456 kts | 356° |
| 2026-05-05 12:35 | 48.85013 | 6.46438 | 35877 ft | 456 kts | 356° |
| 2026-05-05 12:36 | 48.91299 | 6.45285 | 35868 ft | 455 kts | 346° |
| 2026-05-05 12:36 | 48.98496 | 6.42883 | 35855 ft | 456 kts | 347° |
| 2026-05-05 12:37 | 49.03700 | 6.41141 | 35856 ft | 457 kts | 347° |
| 2026-05-05 12:37 | 49.09873 | 6.39059 | 35857 ft | 457 kts | 346° |
| 2026-05-05 12:38 | 49.16088 | 6.36952 | 35854 ft | 458 kts | 346° |
| 2026-05-05 12:38 | 49.22319 | 6.34833 | 35858 ft | 459 kts | 346° |
| 2026-05-05 12:39 | 49.28564 | 6.32705 | 35858 ft | 460 kts | 346° |
| 2026-05-05 12:39 | 49.34778 | 6.30586 | 35860 ft | 461 kts | 346° |
| 2026-05-05 12:40 | 49.41035 | 6.28448 | 35856 ft | 461 kts | 346° |
| 2026-05-05 12:40 | 49.47292 | 6.26298 | 35876 ft | 461 kts | 346° |
| 2026-05-05 12:41 | 49.53541 | 6.24145 | 35882 ft | 461 kts | 346° |
| 2026-05-05 12:41 | 49.59798 | 6.21988 | 35875 ft | 460 kts | 346° |
| 2026-05-05 12:42 | 49.66004 | 6.19852 | 35868 ft | 460 kts | 346° |
| 2026-05-05 12:42 | 49.72247 | 6.17697 | 35863 ft | 460 kts | 346° |
| 2026-05-05 12:43 | 49.78489 | 6.15525 | 35858 ft | 460 kts | 346° |
| 2026-05-05 12:43 | 49.84736 | 6.13348 | 35862 ft | 460 kts | 345° |
| 2026-05-05 12:44 | 49.90940 | 6.11175 | 35860 ft | 460 kts | 345° |
| 2026-05-05 12:44 | 49.97187 | 6.08988 | 35855 ft | 460 kts | 345° |
| 2026-05-05 12:45 | 50.03429 | 6.06796 | 35855 ft | 460 kts | 345° |
| 2026-05-05 12:45 | 50.09668 | 6.04599 | 35860 ft | 459 kts | 345° |
| 2026-05-05 12:46 | 50.15861 | 6.02418 | 35857 ft | 459 kts | 345° |
| 2026-05-05 12:46 | 50.22089 | 6.00211 | 35856 ft | 459 kts | 345° |
| 2026-05-05 12:47 | 50.28310 | 5.98003 | 35829 ft | 458 kts | 345° |
| 2026-05-05 12:47 | 50.31410 | 5.96902 | 35560 ft | 455 kts | 345° |
| 2026-05-05 12:47 | 50.34489 | 5.95809 | 35309 ft | 453 kts | 345° |
| 2026-05-05 12:48 | 50.37517 | 5.94730 | 35066 ft | 453 kts | 345° |
| 2026-05-05 12:48 | 50.40573 | 5.93636 | 34592 ft | 450 kts | 345° |
| 2026-05-05 12:48 | 50.43627 | 5.92539 | 34019 ft | 449 kts | 344° |
| 2026-05-05 12:48 | 50.46671 | 5.91446 | 33387 ft | 449 kts | 345° |
| 2026-05-05 12:49 | 50.49704 | 5.90361 | 32822 ft | 445 kts | 345° |
| 2026-05-05 12:49 | 50.52717 | 5.89282 | 32235 ft | 443 kts | 345° |
| 2026-05-05 12:49 | 50.55713 | 5.88208 | 31673 ft | 441 kts | 345° |
| 2026-05-05 12:49 | 50.58681 | 5.87066 | 31106 ft | 437 kts | 340° |
| 2026-05-05 12:50 | 50.61421 | 5.85270 | 30591 ft | 430 kts | 328° |
| 2026-05-05 12:50 | 50.63902 | 5.82727 | 30088 ft | 422 kts | 318° |
| 2026-05-05 12:50 | 50.66016 | 5.79587 | 29539 ft | 414 kts | 307° |
| 2026-05-05 12:50 | 50.67716 | 5.75989 | 29060 ft | 405 kts | 297° |
| 2026-05-05 12:51 | 50.69032 | 5.72122 | 28604 ft | 398 kts | 293° |
| 2026-05-05 12:51 | 50.70280 | 5.68254 | 28130 ft | 394 kts | 293° |
| 2026-05-05 12:51 | 50.71516 | 5.64424 | 27683 ft | 390 kts | 293° |
| 2026-05-05 12:51 | 50.72735 | 5.60634 | 27262 ft | 386 kts | 293° |
| 2026-05-05 12:52 | 50.73941 | 5.56867 | 26826 ft | 382 kts | 293° |
| 2026-05-05 12:52 | 50.75131 | 5.53138 | 26406 ft | 378 kts | 293° |
| 2026-05-05 12:52 | 50.76294 | 5.49492 | 25991 ft | 375 kts | 293° |
| 2026-05-05 12:52 | 50.77461 | 5.45825 | 25555 ft | 372 kts | 293° |
| 2026-05-05 12:53 | 50.78618 | 5.42187 | 25138 ft | 369 kts | 294° |
| 2026-05-05 12:53 | 50.79765 | 5.38571 | 24704 ft | 367 kts | 294° |
| 2026-05-05 12:53 | 50.80902 | 5.34976 | 24270 ft | 364 kts | 294° |
| 2026-05-05 12:53 | 50.82029 | 5.31405 | 23823 ft | 362 kts | 294° |
| 2026-05-05 12:54 | 50.84269 | 5.24299 | 22875 ft | 359 kts | 294° |
| 2026-05-05 12:54 | 50.85377 | 5.20776 | 22416 ft | 356 kts | 294° |
| 2026-05-05 12:54 | 50.86460 | 5.17328 | 21975 ft | 354 kts | 294° |
| 2026-05-05 12:55 | 50.87355 | 5.13725 | 21528 ft | 350 kts | 283° |
| 2026-05-05 12:55 | 50.87824 | 5.09969 | 21088 ft | 346 kts | 273° |
| 2026-05-05 12:55 | 50.88000 | 5.06184 | 20657 ft | 344 kts | 272° |
| 2026-05-05 12:55 | 50.88166 | 5.02414 | 20227 ft | 343 kts | 272° |
| 2026-05-05 12:56 | 50.88333 | 4.98656 | 19789 ft | 342 kts | 272° |
| 2026-05-05 12:56 | 50.88501 | 4.94906 | 19365 ft | 341 kts | 272° |
| 2026-05-05 12:56 | 50.88669 | 4.91162 | 18937 ft | 341 kts | 272° |
| 2026-05-05 12:56 | 50.88833 | 4.87419 | 18516 ft | 340 kts | 272° |
| 2026-05-05 12:57 | 50.88994 | 4.83733 | 18080 ft | 340 kts | 272° |
| 2026-05-05 12:57 | 50.89157 | 4.79996 | 17630 ft | 339 kts | 273° |
| 2026-05-05 12:57 | 50.89317 | 4.76284 | 17204 ft | 337 kts | 272° |
| 2026-05-05 12:57 | 50.89475 | 4.72587 | 16781 ft | 336 kts | 273° |
| 2026-05-05 12:58 | 50.89629 | 4.68899 | 16380 ft | 335 kts | 272° |
| 2026-05-05 12:58 | 50.89779 | 4.65222 | 15968 ft | 334 kts | 273° |
| 2026-05-05 12:58 | 50.89925 | 4.61556 | 15561 ft | 333 kts | 273° |
| 2026-05-05 12:58 | 50.90072 | 4.57898 | 15155 ft | 333 kts | 273° |
| 2026-05-05 12:59 | 50.90220 | 4.54239 | 14746 ft | 333 kts | 274° |
| 2026-05-05 12:59 | 50.90335 | 4.50628 | 14309 ft | 333 kts | 272° |
| 2026-05-05 12:59 | 50.90399 | 4.46949 | 13860 ft | 334 kts | 271° |
| 2026-05-05 13:00 | 50.90476 | 4.39571 | 12904 ft | 334 kts | 271° |
| 2026-05-05 13:00 | 50.90511 | 4.35898 | 12443 ft | 333 kts | 271° |
| 2026-05-05 13:01 | 50.90611 | 4.24962 | 11044 ft | 329 kts | 267° |
| 2026-05-05 13:01 | 50.90079 | 4.21468 | 10563 ft | 328 kts | 244° |
| 2026-05-05 13:01 | 50.88747 | 4.18634 | 10087 ft | 326 kts | 221° |
| 2026-05-05 13:01 | 50.86832 | 4.16901 | 9853 ft | 307 kts | 197° |
| 2026-05-05 13:02 | 50.84791 | 4.16409 | 9389 ft | 292 kts | 176° |
| 2026-05-05 13:02 | 50.82822 | 4.16995 | 8844 ft | 286 kts | 165° |
| 2026-05-05 13:02 | 50.80899 | 4.17768 | 8297 ft | 284 kts | 164° |
| 2026-05-05 13:02 | 50.78986 | 4.18527 | 7757 ft | 281 kts | 163° |
| 2026-05-05 13:03 | 50.77147 | 4.19247 | 7508 ft | 261 kts | 164° |
| 2026-05-05 13:03 | 50.75438 | 4.19908 | 7204 ft | 247 kts | 163° |
| 2026-05-05 13:03 | 50.73785 | 4.20553 | 6698 ft | 243 kts | 164° |
| 2026-05-05 13:03 | 50.72158 | 4.21192 | 6326 ft | 239 kts | 162° |
| 2026-05-05 13:04 | 50.70600 | 4.21996 | 6191 ft | 238 kts | 147° |
| 2026-05-05 13:04 | 50.69440 | 4.23778 | 6063 ft | 233 kts | 116° |
| 2026-05-05 13:04 | 50.68995 | 4.26221 | 5586 ft | 236 kts | 86° |
| 2026-05-05 13:04 | 50.69299 | 4.28701 | 5173 ft | 227 kts | 74° |
| 2026-05-05 13:05 | 50.69683 | 4.31107 | 4595 ft | 226 kts | 74° |
| 2026-05-05 13:05 | 50.70063 | 4.33493 | 4143 ft | 222 kts | 75° |
| 2026-05-05 13:05 | 50.70433 | 4.35818 | 3944 ft | 215 kts | 75° |
| 2026-05-05 13:05 | 50.70787 | 4.38050 | 3823 ft | 204 kts | 73° |
| 2026-05-05 13:06 | 50.71228 | 4.40069 | 3718 ft | 192 kts | 59° |
| 2026-05-05 13:06 | 50.72028 | 4.41681 | 3576 ft | 184 kts | 41° |
| 2026-05-05 13:06 | 50.73097 | 4.42750 | 3384 ft | 182 kts | 22° |
| 2026-05-05 13:06 | 50.74312 | 4.43297 | 3165 ft | 181 kts | 15° |
| 2026-05-05 13:07 | 50.75528 | 4.43790 | 2922 ft | 180 kts | 15° |
| 2026-05-05 13:07 | 50.76736 | 4.44280 | 2683 ft | 179 kts | 16° |
| 2026-05-05 13:07 | 50.77935 | 4.44766 | 2474 ft | 176 kts | 15° |
| 2026-05-05 13:07 | 50.79091 | 4.45235 | 2210 ft | 166 kts | 16° |
| 2026-05-05 13:08 | 50.80158 | 4.45668 | 1977 ft | 155 kts | 16° |
| 2026-05-05 13:08 | 50.81149 | 4.46070 | 1787 ft | 138 kts | 16° |
| 2026-05-05 13:08 | 50.82053 | 4.46437 | 1602 ft | 131 kts | 17° |
| 2026-05-05 13:08 | 50.82928 | 4.46793 | 1415 ft | 129 kts | 16° |
| 2026-05-05 13:09 | 50.83793 | 4.47141 | 1235 ft | 130 kts | 17° |
| 2026-05-05 13:09 | 50.84680 | 4.47505 | 1088 ft | 134 kts | 17° |
| 2026-05-05 13:09 | 50.85577 | 4.47867 | 885 ft | 132 kts | 16° |
| 2026-05-05 13:09 | 50.86461 | 4.48228 | 694 ft | 131 kts | 16° |
| 2026-05-05 13:10 | 50.87342 | 4.48587 | 522 ft | 131 kts | 16° |
| 2026-05-05 13:10 | 50.88203 | 4.48939 | 320 ft | 128 kts | 15° |
| 2026-05-05 13:10 | 50.89046 | 4.49285 | 189 ft | 120 kts | 15° |
| 2026-05-05 13:10 | 50.89715 | 4.49558 | 150 ft | 75 kts | 14° |
| 2026-05-05 13:11 | 50.90088 | 4.49706 | 132 ft | 42 kts | 12° |
| 2026-05-05 13:11 | 50.90315 | 4.49664 | 127 ft | 31 kts | 342° |
| 2026-05-05 13:11 | 50.90486 | 4.49514 | 122 ft | 23 kts | 331° |
| 2026-05-05 13:11 | 50.90644 | 4.49552 | 124 ft | 24 kts | 14° |
| 2026-05-05 13:12 | 50.90775 | 4.49527 | 123 ft | 20 kts | 279° |
| 2026-05-05 13:12 | 50.90724 | 4.49359 | 118 ft | 16 kts | 248° |
| 2026-05-05 13:12 | 50.90681 | 4.49198 | 118 ft | 16 kts | 246° |
| 2026-05-05 13:12 | 50.90636 | 4.49042 | 119 ft | 15 kts | 245° |
| 2026-05-05 13:13 | 50.90592 | 4.48892 | 117 ft | 14 kts | 245° |
| 2026-05-05 13:13 | 50.90552 | 4.48752 | 117 ft | 13 kts | 245° |
| 2026-05-05 13:13 | 50.90514 | 4.48621 | 119 ft | 13 kts | 245° |
| 2026-05-05 13:13 | 50.90468 | 4.48460 | 119 ft | 19 kts | 245° |
| 2026-05-05 13:14 | 50.90414 | 4.48277 | 120 ft | 18 kts | 245° |
| 2026-05-05 13:14 | 50.90365 | 4.48107 | 121 ft | 16 kts | 245° |
| 2026-05-05 13:14 | 50.90320 | 4.47947 | 118 ft | 15 kts | 246° |
| 2026-05-05 13:14 | 50.90277 | 4.47797 | 121 ft | 14 kts | 245° |
| 2026-05-05 13:15 | 50.90240 | 4.47674 | 120 ft | 7 kts | 244° |
| 2026-05-05 13:15 | 50.90209 | 4.47651 | 118 ft | 5 kts | 166° |
| 2026-05-05 13:15 | 50.90181 | 4.47673 | 118 ft | 4 kts | 155° |
| 2026-05-05 13:15 | 50.90165 | 4.47685 | 120 ft | 1 kts | 155° |
| 2026-05-05 13:16 | 50.90160 | 4.47688 | 120 ft | 0 kts | 155° |
| 2026-05-05 13:16 | 50.90159 | 4.47689 | 120 ft | 0 kts | 155° |